Time;durP1;ratioP1;P1;durP2;ratioP2;P2;SDS_P1;SDS_P2;PMS_P1;PMS_P2;Temp;Humidity;BMP_temperature;BMP_pressure;BME280_temperature;BME280_humidity;BME280_pressure;Samples;Min_cycle;Max_cycle;Signal;HPM_P1;HPM_P2
2022/04/18 03:02:24;;;;;;;0.60;0.30;;;18.60;47.50;;;;;;4986628;23;45478;-59
2022/04/18 03:04:50;;;;;;;0.32;0.32;;;18.60;47.50;;;;;;4916264;28;44763;-57
2022/04/18 03:07:16;;;;;;;0.50;0.47;;;18.60;47.50;;;;;;4934866;28;45420;-55
2022/04/18 03:09:41;;;;;;;0.50;0.50;;;18.60;47.50;;;;;;4940131;28;45301;-57
2022/04/18 03:12:08;;;;;;;0.60;0.50;;;18.60;47.50;;;;;;4916269;28;44715;-58
2022/04/18 03:14:33;;;;;;;0.50;0.40;;;18.60;47.50;;;;;;4914051;28;45822;-59
2022/04/18 03:16:59;;;;;;;0.52;0.40;;;18.60;47.50;;;;;;4916898;28;45738;-58
2022/04/18 03:19:24;;;;;;;0.50;0.50;;;18.60;47.50;;;;;;4917716;28;45205;-59
2022/04/18 03:21:51;;;;;;;0.75;0.50;;;18.50;47.50;;;;;;4920192;28;44637;-58
2022/04/18 03:24:17;;;;;;;0.45;0.45;;;18.50;47.50;;;;;;4920616;28;44882;-56
2022/04/18 03:26:43;;;;;;;0.50;0.50;;;18.60;47.50;;;;;;4918270;28;45925;-59
2022/04/18 03:29:08;;;;;;;0.70;0.43;;;18.50;47.50;;;;;;4919171;28;45164;-59
2022/04/18 03:31:34;;;;;;;0.40;0.40;;;18.50;47.50;;;;;;4917797;28;45830;-56
2022/04/18 03:34:00;;;;;;;0.68;0.50;;;18.50;47.50;;;;;;4915392;28;44747;-58
2022/04/18 03:41:53;;;;;;;0.43;0.43;;;18.50;47.50;;;;;;4934598;28;45297;-58
2022/04/18 03:44:19;;;;;;;0.40;0.40;;;18.50;47.50;;;;;;4935165;28;45643;-58
2022/04/18 03:46:44;;;;;;;0.50;0.40;;;18.50;47.50;;;;;;4933780;28;47047;-57
2022/04/18 03:49:10;;;;;;;0.45;0.45;;;18.50;47.50;;;;;;4948963;23;45950;-57
2022/04/18 03:51:36;;;;;;;0.47;0.40;;;18.50;47.50;;;;;;4893919;28;45275;-56
2022/04/18 03:54:01;;;;;;;0.43;0.43;;;18.50;47.50;;;;;;4930421;28;45132;-58
2022/04/18 03:56:27;;;;;;;0.70;0.68;;;18.40;47.50;;;;;;4930137;28;45559;-57
2022/04/18 03:58:53;;;;;;;0.52;0.40;;;18.50;47.50;;;;;;4943468;28;44899;-54
2022/04/18 04:01:18;;;;;;;0.45;0.40;;;18.50;47.50;;;;;;4912986;28;45197;-57
2022/04/18 04:03:44;;;;;;;0.50;0.50;;;18.50;47.50;;;;;;4915275;28;45627;-57
2022/04/18 04:06:09;;;;;;;0.40;0.40;;;18.50;47.50;;;;;;4911250;28;45469;-58
2022/04/18 04:08:35;;;;;;;0.73;0.40;;;18.40;47.50;;;;;;4897986;28;45849;-59
2022/04/18 04:11:00;;;;;;;0.40;0.30;;;18.40;47.50;;;;;;4912694;28;45149;-58
2022/04/18 04:13:26;;;;;;;0.65;0.50;;;18.40;47.50;;;;;;4935029;28;45010;-56
2022/04/18 04:15:52;;;;;;;0.70;0.60;;;18.40;47.50;;;;;;4917593;28;46182;-56
2022/04/18 04:18:17;;;;;;;0.30;0.30;;;18.40;47.50;;;;;;4917320;28;45176;-57
2022/04/18 04:20:43;;;;;;;0.50;0.50;;;18.40;47.50;;;;;;4929989;28;45244;-59
2022/04/18 04:23:08;;;;;;;0.32;0.32;;;18.40;47.60;;;;;;4926620;28;45457;-57
2022/04/18 04:25:34;;;;;;;0.40;0.40;;;18.40;47.60;;;;;;4926376;28;45420;-58
2022/04/18 04:27:59;;;;;;;0.40;0.40;;;18.40;47.50;;;;;;4915520;28;45190;-59
2022/04/18 04:30:25;;;;;;;2.47;0.70;;;18.40;47.50;;;;;;4911354;28;45248;-58
2022/04/18 04:32:51;;;;;;;0.47;0.47;;;18.40;48.20;;;;;;4934193;28;44817;-58
2022/04/18 04:35:17;;;;;;;1.25;0.63;;;18.40;47.60;;;;;;4920071;28;46586;-59
2022/04/18 04:37:43;;;;;;;0.93;0.50;;;18.40;47.60;;;;;;4930573;28;45161;-59
2022/04/18 04:40:09;;;;;;;1.55;0.40;;;18.40;47.60;;;;;;4937876;28;44734;-58
2022/04/18 04:42:35;;;;;;;0.65;0.60;;;18.40;47.60;;;;;;4914375;28;44935;-60
2022/04/18 04:45:01;;;;;;;0.40;0.40;;;18.40;47.60;;;;;;4925676;28;46106;-57
2022/04/18 04:47:26;;;;;;;0.50;0.50;;;18.30;47.50;;;;;;4942190;28;45211;-58
2022/04/18 04:49:52;;;;;;;0.40;0.40;;;18.40;47.60;;;;;;4916844;28;44966;-59
2022/04/18 04:52:19;;;;;;;0.55;0.55;;;18.30;48.10;;;;;;4936363;28;45271;-57
2022/04/18 04:54:44;;;;;;;0.47;0.40;;;18.30;47.50;;;;;;4891801;28;45642;-58
2022/04/18 04:57:10;;;;;;;0.47;0.43;;;18.30;47.50;;;;;;4930078;28;45499;-58
2022/04/18 04:59:35;;;;;;;0.65;0.55;;;18.40;47.60;;;;;;4914228;28;45293;-58
2022/04/18 05:02:01;;;;;;;0.50;0.50;;;18.30;47.60;;;;;;4936537;28;45563;-59
2022/04/18 05:04:27;;;;;;;1.10;0.60;;;18.30;47.50;;;;;;4915115;28;45439;-59
2022/04/18 05:06:53;;;;;;;0.75;0.50;;;18.30;47.50;;;;;;4930413;28;45425;-59
2022/04/18 05:09:18;;;;;;;0.82;0.50;;;18.30;47.50;;;;;;4915591;28;45118;-58
2022/04/18 05:11:46;;;;;;;0.40;0.40;;;18.30;47.50;;;;;;4914212;28;45718;-58
2022/04/18 05:14:12;;;;;;;0.98;0.55;;;18.30;47.60;;;;;;4927539;28;45498;-59
2022/04/18 05:16:39;;;;;;;0.50;0.50;;;18.30;47.60;;;;;;4915681;28;45658;-58
2022/04/18 05:19:05;;;;;;;0.50;0.50;;;18.30;47.60;;;;;;4913697;28;45719;-59
2022/04/18 05:21:31;;;;;;;0.65;0.43;;;18.30;47.60;;;;;;4916225;28;45476;-58
2022/04/18 05:23:56;;;;;;;0.50;0.40;;;18.30;47.60;;;;;;4901342;28;45390;-56
2022/04/18 05:26:22;;;;;;;0.57;0.52;;;18.30;47.50;;;;;;4932489;28;46188;-58
2022/04/18 05:28:48;;;;;;;0.73;0.70;;;18.40;47.40;;;;;;4900859;28;45649;-59
2022/04/18 05:31:17;;;;;;;0.88;0.60;;;18.40;47.40;;;;;;4936935;28;45128;-58
2022/04/18 05:33:43;;;;;;;0.68;0.47;;;18.40;47.30;;;;;;4934013;28;46529;-56
2022/04/18 05:36:09;;;;;;;0.52;0.40;;;18.40;47.30;;;;;;4912729;28;45355;-59
2022/04/18 05:38:34;;;;;;;0.95;0.47;;;18.40;47.20;;;;;;4929133;28;46476;-58
2022/04/18 05:41:00;;;;;;;0.40;0.40;;;18.40;47.20;;;;;;4915247;28;45642;-59
2022/04/18 05:43:26;;;;;;;0.50;0.50;;;18.40;47.20;;;;;;4933434;28;45203;-58
2022/04/18 05:45:51;;;;;;;0.57;0.57;;;18.50;47.20;;;;;;4916087;28;45484;-58
2022/04/18 05:48:17;;;;;;;0.60;0.40;;;18.50;47.10;;;;;;4932391;28;45521;-57
2022/04/18 05:50:45;;;;;;;0.60;0.50;;;18.50;47.10;;;;;;4927700;28;45489;-59
2022/04/18 05:53:15;;;;;;;0.40;0.38;;;18.50;47.10;;;;;;4923040;28;46610;-57
2022/04/18 05:55:41;;;;;;;0.52;0.50;;;18.50;47.00;;;;;;4899514;28;45046;-59
2022/04/18 05:58:06;;;;;;;0.40;0.40;;;18.60;46.90;;;;;;4933202;28;45323;-58
2022/04/18 06:00:34;;;;;;;0.75;0.50;;;18.60;46.80;;;;;;4883422;28;44975;-57
2022/04/18 06:03:00;;;;;;;0.50;0.50;;;18.60;46.70;;;;;;4930063;28;45647;-58
2022/04/18 06:05:26;;;;;;;0.38;0.35;;;18.60;46.60;;;;;;4931822;28;45278;-59
2022/04/18 06:07:52;;;;;;;2.13;0.40;;;18.70;46.60;;;;;;4914622;28;45409;-58
2022/04/18 06:10:18;;;;;;;0.68;0.60;;;18.70;46.60;;;;;;4911703;28;45424;-56
2022/04/18 06:12:43;;;;;;;0.60;0.50;;;18.70;46.60;;;;;;4909195;28;46425;-59
2022/04/18 06:15:09;;;;;;;0.82;0.70;;;18.70;46.60;;;;;;4930089;28;45566;-57
2022/04/18 06:17:35;;;;;;;0.88;0.50;;;18.70;46.50;;;;;;4898718;28;44815;-56
2022/04/18 06:20:01;;;;;;;0.55;0.55;;;18.70;46.50;;;;;;4900822;28;45573;-57
2022/04/18 06:22:27;;;;;;;1.35;0.45;;;18.70;46.50;;;;;;4923740;28;46522;-58
2022/04/18 06:24:53;;;;;;;0.60;0.57;;;18.80;46.50;;;;;;4928328;28;45554;-57
2022/04/18 06:27:18;;;;;;;0.70;0.40;;;18.80;46.50;;;;;;4914913;28;45262;-58
2022/04/18 06:29:44;;;;;;;1.02;0.70;;;18.80;46.40;;;;;;4913729;28;45006;-59
2022/04/18 06:32:10;;;;;;;0.70;0.38;;;18.80;46.40;;;;;;4910441;28;47079;-57
2022/04/18 06:34:35;;;;;;;0.50;0.50;;;18.70;46.50;;;;;;4924059;28;45109;-58
2022/04/18 06:37:01;;;;;;;0.43;0.43;;;18.80;46.50;;;;;;4910877;28;45667;-59
2022/04/18 06:39:26;;;;;;;0.40;0.40;;;18.70;46.50;;;;;;4911712;28;45753;-60
2022/04/18 06:41:52;;;;;;;0.40;0.40;;;18.70;46.60;;;;;;4926084;28;46282;-59
2022/04/18 06:44:18;;;;;;;0.30;0.30;;;18.70;46.60;;;;;;4930789;28;45792;-59
2022/04/18 06:46:43;;;;;;;0.50;0.50;;;18.70;46.60;;;;;;4928019;28;45402;-57
2022/04/18 06:49:09;;;;;;;0.40;0.40;;;18.70;46.70;;;;;;4932685;28;45375;-59
2022/04/18 06:51:34;;;;;;;0.50;0.45;;;18.70;46.80;;;;;;4910047;28;46466;-57
2022/04/18 06:54:00;;;;;;;2.55;0.50;;;18.70;46.80;;;;;;4908025;28;45258;-58
2022/04/18 06:59:10;;;;;;;0.43;0.43;;;18.70;46.70;;;;;;4930652;28;45090;-58
2022/04/18 07:01:35;;;;;;;0.90;0.70;;;18.80;46.60;;;;;;4928206;28;46940;-58
2022/04/18 07:04:01;;;;;;;0.52;0.50;;;18.80;46.50;;;;;;4932419;28;44735;-57
2022/04/18 07:06:27;;;;;;;0.45;0.43;;;18.80;46.40;;;;;;4932658;28;44741;-59
2022/04/18 07:08:53;;;;;;;0.60;0.50;;;18.90;46.40;;;;;;4931615;28;45523;-58
2022/04/18 07:11:19;;;;;;;0.50;0.43;;;18.90;46.40;;;;;;4892195;28;45103;-57
2022/04/18 07:13:44;;;;;;;0.38;0.38;;;18.80;46.30;;;;;;4895159;28;45424;-58
2022/04/18 07:16:10;;;;;;;0.40;0.40;;;18.80;46.40;;;;;;4927143;28;45381;-58
2022/04/18 07:18:35;;;;;;;0.40;0.40;;;18.90;46.50;;;;;;4921894;28;45319;-58
2022/04/18 07:21:02;;;;;;;0.50;0.50;;;18.90;46.50;;;;;;4909756;28;46698;-57
2022/04/18 07:23:28;;;;;;;0.68;0.68;;;18.80;46.50;;;;;;4921328;28;46772;-59
2022/04/18 07:25:55;;;;;;;2.67;0.50;;;18.90;46.50;;;;;;4923507;28;46107;-57
2022/04/18 07:28:21;;;;;;;0.52;0.50;;;18.90;46.60;;;;;;4904254;28;45576;-58
2022/04/18 07:30:46;;;;;;;0.43;0.43;;;18.90;46.50;;;;;;4925131;28;45592;-59
2022/04/18 07:33:14;;;;;;;0.50;0.50;;;18.90;46.50;;;;;;4878810;28;45434;-59
2022/04/18 07:35:40;;;;;;;0.35;0.35;;;18.90;46.50;;;;;;4905295;28;44917;-60
2022/04/18 07:40:49;;;;;;;0.50;0.50;;;18.90;46.50;;;;;;4904395;28;45598;-59
2022/04/18 07:43:15;;;;;;;0.50;0.50;;;19.00;46.50;;;;;;4909063;28;45686;-58
2022/04/18 07:45:41;;;;;;;0.30;0.30;;;19.00;46.40;;;;;;4920209;28;45328;-59
2022/04/18 07:48:09;;;;;;;0.40;0.40;;;19.00;46.40;;;;;;4920566;28;45547;-59
2022/04/18 07:53:20;;;;;;;0.55;0.50;;;19.00;46.30;;;;;;4919715;28;44985;-58
2022/04/18 07:55:46;;;;;;;0.50;0.50;;;19.00;46.30;;;;;;4903310;28;44802;-59
2022/04/18 07:58:11;;;;;;;0.55;0.52;;;19.00;46.30;;;;;;4900818;28;45567;-59
2022/04/18 08:00:37;;;;;;;0.50;0.50;;;19.00;46.20;;;;;;4919872;28;45427;-58
2022/04/18 08:03:03;;;;;;;0.30;0.30;;;19.10;46.30;;;;;;4887750;28;45557;-58
2022/04/18 08:05:28;;;;;;;0.68;0.45;;;19.10;46.20;;;;;;4923945;28;45400;-58
2022/04/18 08:07:54;;;;;;;0.40;0.32;;;19.10;46.20;;;;;;4921618;28;45417;-59
2022/04/18 08:10:20;;;;;;;0.70;0.50;;;19.10;46.20;;;;;;4927410;28;45326;-59
2022/04/18 08:12:45;;;;;;;0.60;0.50;;;19.10;46.10;;;;;;4896426;28;45696;-58
2022/04/18 08:15:11;;;;;;;0.38;0.38;;;19.20;46.10;;;;;;4930435;28;45305;-56
2022/04/18 08:17:37;;;;;;;0.55;0.55;;;19.20;46.10;;;;;;4928985;28;45167;-57
2022/04/18 08:20:03;;;;;;;0.60;0.50;;;19.20;46.10;;;;;;4878802;28;45395;-58
2022/04/18 08:22:28;;;;;;;0.80;0.60;;;19.20;46.00;;;;;;4912231;28;45292;-56
2022/04/18 08:24:54;;;;;;;0.50;0.50;;;19.20;46.00;;;;;;4928799;28;45538;-58
2022/04/18 08:27:19;;;;;;;0.55;0.38;;;19.20;45.90;;;;;;4927652;28;44998;-59
2022/04/18 08:29:46;;;;;;;0.75;0.52;;;19.20;45.90;;;;;;4908131;28;46017;-57
2022/04/18 08:32:11;;;;;;;0.75;0.52;;;19.20;46.50;;;;;;4930211;28;45307;-57
2022/04/18 08:34:37;;;;;;;0.40;0.40;;;19.30;46.00;;;;;;4905914;28;45486;-57
2022/04/18 08:37:03;;;;;;;0.50;0.50;;;19.30;46.00;;;;;;4930667;28;45460;-59
2022/04/18 08:39:29;;;;;;;0.50;0.50;;;19.30;46.00;;;;;;4931145;28;45482;-58
2022/04/18 08:41:57;;;;;;;0.50;0.50;;;19.30;46.00;;;;;;4928829;28;45332;-59
2022/04/18 08:44:23;;;;;;;0.30;0.30;;;19.30;46.00;;;;;;4927863;28;46127;-59
2022/04/18 08:46:48;;;;;;;0.35;0.35;;;19.30;46.00;;;;;;4892989;28;45055;-59
2022/04/18 08:54:43;;;;;;;0.40;0.40;;;19.30;46.00;;;;;;4922248;28;46060;-59
2022/04/18 08:57:08;;;;;;;1.27;0.40;;;19.30;46.00;;;;;;4933366;28;45446;-59
2022/04/18 08:59:34;;;;;;;0.40;0.40;;;19.30;45.90;;;;;;4939146;28;45368;-56
2022/04/18 09:02:02;;;;;;;0.40;0.40;;;19.30;45.90;;;;;;4934773;28;45339;-56
2022/04/18 09:04:27;;;;;;;0.32;0.32;;;19.30;45.90;;;;;;4932502;28;45358;-59
2022/04/18 09:06:53;;;;;;;0.50;0.50;;;19.40;46.00;;;;;;4899406;28;45272;-59
2022/04/18 09:09:29;;;;;;;0.30;0.30;;;19.40;46.00;;;;;;4927740;28;46557;-58
2022/04/18 09:11:54;;;;;;;0.68;0.40;;;19.40;46.00;;;;;;4913970;28;45280;-60
2022/04/18 09:14:20;;;;;;;0.57;0.40;;;19.40;46.00;;;;;;4934141;28;45201;-59
2022/04/18 09:16:45;;;;;;;0.50;0.50;;;19.40;46.00;;;;;;4934385;28;45438;-58
2022/04/18 09:19:19;;;;;;;0.50;0.45;;;19.40;46.00;;;;;;4913596;28;45498;-59
2022/04/18 09:22:03;;;;;;;0.55;0.47;;;19.40;45.90;;;;;;4948423;28;45029;-58
2022/04/18 09:24:34;;;;;;;0.50;0.50;;;19.40;45.90;;;;;;4924502;28;45711;-59
2022/04/18 09:27:04;;;;;;;0.55;0.55;;;19.40;45.90;;;;;;4936074;28;44918;-58
2022/04/18 09:29:39;;;;;;;0.65;0.40;;;19.40;45.90;;;;;;4951190;28;45531;-58
2022/04/18 09:32:12;;;;;;;0.63;0.38;;;19.50;45.90;;;;;;4893442;28;45216;-59
2022/04/18 09:34:38;;;;;;;;;;;19.50;45.90;;;;;;4916960;28;44764;-57
2022/04/18 09:37:15;;;;;;;0.60;0.40;;;19.50;45.90;;;;;;4898597;28;45876;-58
2022/04/18 09:39:42;;;;;;;0.40;0.40;;;19.50;45.90;;;;;;4926036;28;46238;-59
2022/04/18 09:42:09;;;;;;;0.77;0.50;;;19.50;45.90;;;;;;4911143;28;45474;-59
2022/04/18 09:44:39;;;;;;;0.70;0.50;;;19.50;45.90;;;;;;4912611;28;45406;-59
2022/04/18 09:47:04;;;;;;;0.50;0.47;;;19.50;45.80;;;;;;4925107;28;45030;-60
2022/04/18 09:49:39;;;;;;;0.50;0.40;;;19.50;45.80;;;;;;4928083;28;45313;-57
2022/04/18 09:52:07;;;;;;;0.70;0.50;;;19.50;45.80;;;;;;4941289;28;45187;-59
2022/04/18 09:54:33;;;;;;;0.30;0.30;;;19.50;45.80;;;;;;4942539;28;45877;-59
2022/04/18 09:57:04;;;;;;;0.47;0.47;;;19.50;45.80;;;;;;4927625;28;45712;-59
2022/04/18 09:59:30;;;;;;;0.40;0.40;;;19.60;45.80;;;;;;4949876;28;45594;-58
2022/04/18 10:01:55;;;;;;;0.40;0.40;;;19.60;45.90;;;;;;4910967;28;45340;-60
2022/04/18 10:04:21;;;;;;;0.45;0.40;;;19.60;45.80;;;;;;4928510;28;45631;-58
2022/04/18 10:06:47;;;;;;;0.77;0.50;;;19.60;45.80;;;;;;4947542;28;44923;-58
2022/04/18 10:09:13;;;;;;;0.40;0.40;;;19.60;45.80;;;;;;4896679;28;48392;-57
2022/04/18 10:11:39;;;;;;;0.43;0.40;;;19.60;45.80;;;;;;4944049;28;45377;-58
2022/04/18 10:14:05;;;;;;;0.40;0.40;;;19.60;45.80;;;;;;4912514;28;45016;-59
2022/04/18 10:16:31;;;;;;;0.60;0.40;;;19.60;45.80;;;;;;4928227;28;45598;-59
2022/04/18 10:18:59;;;;;;;0.40;0.40;;;19.60;45.80;;;;;;4919804;28;45451;-59
2022/04/18 10:21:32;;;;;;;0.45;0.32;;;19.60;45.80;;;;;;4920242;28;47033;-59
2022/04/18 10:24:18;;;;;;;0.52;0.50;;;19.70;45.80;;;;;;4926974;28;45627;-60
2022/04/18 10:27:11;;;;;;;0.52;0.50;;;19.70;45.70;;;;;;4942151;28;45679;-58
2022/04/18 10:29:41;;;;;;;0.22;0.20;;;19.70;45.80;;;;;;4942119;28;45487;-63
2022/04/18 10:32:08;;;;;;;0.40;0.40;;;19.70;45.80;;;;;;4941029;28;46299;-59
2022/04/18 10:34:35;;;;;;;0.60;0.60;;;19.70;45.80;;;;;;4915798;28;45616;-59
2022/04/18 10:37:01;;;;;;;0.30;0.30;;;19.70;45.80;;;;;;4929427;28;45075;-59
2022/04/18 10:39:34;;;;;;;0.40;0.40;;;19.70;45.80;;;;;;4944820;28;45233;-60
2022/04/18 10:42:16;;;;;;;0.50;0.30;;;19.70;45.70;;;;;;4945601;28;45301;-59
2022/04/18 10:44:42;;;;;;;0.50;0.33;;;19.70;45.80;;;;;;4900570;28;44840;-60
2022/04/18 10:47:08;;;;;;;0.55;0.30;;;19.70;45.80;;;;;;4926060;28;45561;-58
2022/04/18 10:49:35;;;;;;;0.50;0.30;;;19.70;45.70;;;;;;4923679;28;45483;-60
2022/04/18 10:52:09;;;;;;;0.40;0.30;;;19.80;45.80;;;;;;4947030;28;45317;-59
2022/04/18 10:54:35;;;;;;;0.43;0.40;;;19.70;45.70;;;;;;4910944;28;45893;-59
2022/04/18 10:57:02;;;;;;;0.50;0.50;;;19.70;45.80;;;;;;4911992;28;44731;-59
2022/04/18 10:59:32;;;;;;;0.32;0.32;;;19.70;45.80;;;;;;4927511;28;46056;-58
2022/04/18 11:01:59;;;;;;;0.32;0.32;;;19.80;45.80;;;;;;4942812;28;45056;-58
2022/04/18 11:04:26;;;;;;;0.40;0.40;;;19.80;45.80;;;;;;4931025;28;45267;-59
2022/04/18 11:07:06;;;;;;;0.40;0.40;;;19.80;45.80;;;;;;4911105;28;44942;-58
2022/04/18 11:09:33;;;;;;;0.32;0.30;;;19.80;45.80;;;;;;4943338;28;46812;-58
2022/04/18 11:12:18;;;;;;;0.30;0.30;;;19.80;45.80;;;;;;4921933;28;45165;-58
2022/04/18 11:14:47;;;;;;;0.55;0.47;;;19.80;45.80;;;;;;4927371;28;45540;-59
2022/04/18 11:17:13;;;;;;;0.50;0.40;;;19.80;45.60;;;;;;4943184;28;45271;-58
2022/04/18 11:19:40;;;;;;;0.70;0.57;;;19.90;45.20;;;;;;4922409;28;47043;-59
2022/04/18 11:22:16;;;;;;;3.05;0.60;;;19.90;45.20;;;;;;4926366;28;46326;-59
2022/04/18 11:24:42;;;;;;;0.77;0.65;;;19.90;45.10;;;;;;4941686;28;45183;-57
2022/04/18 11:27:15;;;;;;;1.17;0.93;;;19.90;40.00;;;;;;4923709;28;45532;-59
2022/04/18 11:29:50;;;;;;;2.13;0.85;;;19.80;37.30;;;;;;4944317;28;46471;-59
2022/04/18 11:32:17;;;;;;;1.85;1.10;;;19.80;36.80;;;;;;4945120;28;45393;-57
2022/04/18 11:34:50;;;;;;;0.88;0.70;;;19.80;37.30;;;;;;4930871;28;45300;-58
2022/04/18 11:37:28;;;;;;;1.80;0.77;;;19.70;36.90;;;;;;4942155;28;45414;-58
2022/04/18 11:39:55;;;;;;;1.35;0.75;;;19.80;35.80;;;;;;4938536;28;45406;-58
2022/04/18 11:42:23;;;;;;;1.45;0.90;;;19.70;37.80;;;;;;4943460;28;45293;-59
2022/04/18 11:44:50;;;;;;;2.65;0.80;;;19.80;37.30;;;;;;4928772;28;44704;-56
2022/04/18 11:47:20;;;;;;;1.05;0.73;;;19.80;37.00;;;;;;4923787;28;45913;-58
2022/04/18 11:49:46;;;;;;;1.02;0.68;;;19.80;37.00;;;;;;4924336;28;45593;-57
2022/04/18 11:52:37;;;;;;;3.22;0.70;;;19.80;36.90;;;;;;4927469;28;45307;-57
2022/04/18 11:55:02;;;;;;;1.55;0.93;;;19.80;36.00;;;;;;4927926;28;45518;-58
2022/04/18 11:57:32;;;;;;;2.83;0.77;;;19.80;36.70;;;;;;4941107;28;46664;-58
2022/04/18 11:59:58;;;;;;;1.48;0.90;;;19.80;36.90;;;;;;4924748;28;46514;-57
2022/04/18 12:08:02;;;;;;;1.23;0.85;;;19.90;36.50;;;;;;4944463;28;44786;-57
2022/04/18 12:10:29;;;;;;;0.85;0.80;;;19.90;37.30;;;;;;4942702;28;47309;-60
2022/04/18 12:12:55;;;;;;;2.55;1.13;;;19.80;37.30;;;;;;4908992;28;45583;-57
2022/04/18 12:15:22;;;;;;;1.52;0.88;;;19.80;37.00;;;;;;4939333;28;45484;-57
2022/04/18 12:17:48;;;;;;;3.63;0.77;;;19.90;37.20;;;;;;4894700;28;45440;-58
2022/04/18 12:20:21;;;;;;;4.13;0.98;;;19.90;37.20;;;;;;4926562;28;45657;-57
2022/04/18 12:22:52;;;;;;;2.43;1.10;;;19.90;36.60;;;;;;4941507;28;45388;-57
2022/04/18 12:25:22;;;;;;;1.45;0.80;;;19.90;36.00;;;;;;4941854;28;45814;-59
2022/04/18 12:27:47;;;;;;;2.45;0.98;;;19.90;36.00;;;;;;4925339;28;44734;-57
2022/04/18 12:30:13;;;;;;;3.42;0.80;;;19.90;35.60;;;;;;4945965;28;47110;-59
2022/04/18 12:32:39;;;;;;;1.48;0.90;;;19.90;35.70;;;;;;4917975;28;45349;-58
2022/04/18 12:35:05;;;;;;;1.05;0.77;;;19.90;35.50;;;;;;4952973;28;45222;-59
2022/04/18 12:37:31;;;;;;;1.30;0.90;;;19.90;36.20;;;;;;4939094;28;45272;-57
2022/04/18 12:40:38;;;;;;;1.38;0.75;;;19.90;35.90;;;;;;4949880;28;45505;-56
2022/04/18 12:43:16;;;;;;;1.75;0.98;;;19.90;34.70;;;;;;4932322;28;45739;-58
2022/04/18 12:45:57;;;;;;;3.30;1.00;;;20.00;34.80;;;;;;4931674;28;45273;-57
2022/04/18 12:48:27;;;;;;;1.10;0.77;;;20.00;34.40;;;;;;4932936;28;45354;-57
2022/04/18 12:50:53;;;;;;;1.80;0.90;;;20.00;34.60;;;;;;4951406;28;45432;-57
2022/04/18 12:53:20;;;;;;;1.98;0.80;;;20.00;34.80;;;;;;4947695;28;45523;-58
2022/04/18 12:55:45;;;;;;;1.88;0.80;;;20.00;35.00;;;;;;4951590;28;46035;-58
2022/04/18 12:58:18;;;;;;;2.33;0.88;;;19.90;35.50;;;;;;4954083;28;45429;-62
2022/04/18 13:00:49;;;;;;;1.75;0.93;;;20.00;34.50;;;;;;4934930;28;45464;-59
2022/04/18 13:03:15;;;;;;;2.00;0.70;;;20.00;34.20;;;;;;4949426;28;45123;-57
2022/04/18 13:05:50;;;;;;;1.50;0.80;;;20.00;35.00;;;;;;4953570;28;45420;-58
2022/04/18 13:08:16;;;;;;;2.70;0.88;;;20.00;34.30;;;;;;4949540;28;45372;-58
2022/04/18 13:10:43;;;;;;;1.40;1.05;;;20.00;34.50;;;;;;4950702;28;46950;-58
2022/04/18 13:13:16;;;;;;;1.50;0.70;;;20.00;34.40;;;;;;4942881;28;45496;-58
2022/04/18 13:15:42;;;;;;;;;;;20.00;33.80;;;;;;4941145;28;44957;-57
2022/04/18 13:18:12;;;;;;;2.30;1.08;;;20.00;32.50;;;;;;4947642;28;44816;-57
2022/04/18 13:20:39;;;;;;;2.22;0.80;;;20.00;34.50;;;;;;4941604;28;45628;-57
2022/04/18 13:23:04;;;;;;;1.40;1.02;;;20.00;34.30;;;;;;4957801;28;45183;-58
2022/04/18 13:25:30;;;;;;;1.92;0.98;;;20.10;34.20;;;;;;4950578;28;45438;-57
2022/04/18 13:27:56;;;;;;;1.52;0.80;;;20.10;34.20;;;;;;4947582;28;45056;-56
2022/04/18 13:30:25;;;;;;;1.27;0.80;;;20.10;34.20;;;;;;4944253;28;45510;-58
2022/04/18 13:32:51;;;;;;;1.15;0.80;;;20.10;34.20;;;;;;4938292;28;45495;-57
2022/04/18 13:35:18;;;;;;;1.17;0.98;;;20.00;34.40;;;;;;4935209;28;45335;-57
2022/04/18 13:37:46;;;;;;;1.80;0.98;;;20.00;34.40;;;;;;4941983;28;45187;-58
2022/04/18 13:40:15;;;;;;;2.22;0.80;;;20.00;34.10;;;;;;4952197;28;45506;-58
2022/04/18 13:42:44;;;;;;;1.10;0.88;;;20.10;34.20;;;;;;4933749;28;45316;-58
2022/04/18 13:45:11;;;;;;;1.38;0.90;;;20.10;34.10;;;;;;4936745;28;45284;-57
2022/04/18 13:47:41;;;;;;;3.03;1.00;;;20.10;34.30;;;;;;4897700;28;45615;-58
2022/04/18 13:50:11;;;;;;;1.30;0.88;;;20.10;34.20;;;;;;4942205;28;45160;-58
2022/04/18 13:52:39;;;;;;;0.95;0.80;;;20.10;33.80;;;;;;4938737;28;45151;-58
2022/04/18 13:55:07;;;;;;;1.40;1.10;;;20.10;34.10;;;;;;4936507;28;45184;-58
2022/04/18 13:57:32;;;;;;;1.85;0.80;;;20.20;34.00;;;;;;4910674;28;44839;-59
2022/04/18 13:59:58;;;;;;;3.25;1.15;;;20.20;33.90;;;;;;4948060;28;46178;-58
2022/04/18 14:02:24;;;;;;;2.45;1.35;;;20.10;34.00;;;;;;4937014;28;44810;-59
2022/04/18 14:04:49;;;;;;;1.27;1.02;;;20.20;34.20;;;;;;4914077;28;46045;-59
2022/04/18 14:07:15;;;;;;;1.63;0.95;;;20.20;34.10;;;;;;4930721;28;45031;-59
2022/04/18 14:09:42;;;;;;;2.70;1.00;;;20.20;34.10;;;;;;4931500;28;46215;-59
2022/04/18 14:12:08;;;;;;;1.58;1.02;;;20.20;34.10;;;;;;4946305;28;45188;-59
2022/04/18 14:20:20;;;;;;;1.92;0.98;;;20.20;34.40;;;;;;4933568;28;45127;-59
2022/04/18 14:22:47;;;;;;;0.98;0.88;;;20.20;34.50;;;;;;4932683;28;45785;-59
2022/04/18 14:25:12;;;;;;;2.42;1.25;;;20.20;34.50;;;;;;4932027;28;45293;-58
2022/04/18 14:27:39;;;;;;;2.15;1.17;;;20.20;35.10;;;;;;4931769;28;45547;-59
2022/04/18 14:30:05;;;;;;;1.50;1.10;;;20.20;34.10;;;;;;4930959;28;45296;-58
2022/04/18 14:32:31;;;;;;;1.95;1.10;;;20.20;34.70;;;;;;4929357;28;45258;-59
2022/04/18 14:34:57;;;;;;;1.42;0.93;;;20.20;34.40;;;;;;4947527;28;46081;-57
2022/04/18 14:37:24;;;;;;;2.08;1.00;;;20.20;34.20;;;;;;4951159;28;45266;-59
2022/04/18 14:39:51;;;;;;;1.92;1.08;;;20.10;34.30;;;;;;4929644;28;45643;-57
2022/04/18 14:42:16;;;;;;;0.98;0.80;;;20.10;34.70;;;;;;4948837;28;45447;-59
2022/04/18 14:45:01;;;;;;;1.40;1.05;;;20.10;34.90;;;;;;4932799;28;46134;-59
2022/04/18 14:47:27;;;;;;;1.63;1.00;;;20.20;34.30;;;;;;4949993;28;46181;-57
2022/04/18 14:49:53;;;;;;;1.02;0.80;;;20.10;34.70;;;;;;4928908;28;45395;-58
2022/04/18 14:52:19;;;;;;;1.25;1.10;;;20.20;34.80;;;;;;4944993;28;44816;-57
2022/04/18 14:54:45;;;;;;;1.98;1.33;;;20.20;34.80;;;;;;4949062;28;45092;-58
2022/04/18 14:57:11;;;;;;;2.38;1.23;;;20.20;34.60;;;;;;4947940;28;44802;-58
2022/04/18 14:59:37;;;;;;;1.15;1.05;;;20.20;34.60;;;;;;4946467;28;46922;-58
2022/04/18 15:02:02;;;;;;;2.42;1.25;;;20.20;34.70;;;;;;4927461;28;44730;-57
2022/04/18 15:04:28;;;;;;;1.27;1.02;;;20.20;35.10;;;;;;4947057;28;45320;-61
2022/04/18 15:06:54;;;;;;;2.03;1.10;;;20.20;34.90;;;;;;4948767;28;45220;-58
2022/04/18 15:09:19;;;;;;;2.25;1.00;;;20.20;34.80;;;;;;4947195;28;46466;-57
2022/04/18 15:11:48;;;;;;;1.95;0.93;;;20.10;34.80;;;;;;4950522;28;45315;-59
2022/04/18 15:14:13;;;;;;;1.80;1.10;;;20.20;34.90;;;;;;4950901;28;45240;-57
2022/04/18 15:16:39;;;;;;;2.00;1.15;;;20.20;34.90;;;;;;4930305;28;45232;-58
2022/04/18 15:19:05;;;;;;;1.23;1.13;;;20.20;34.70;;;;;;4926242;28;46376;-58
2022/04/18 15:21:32;;;;;;;1.70;1.20;;;20.20;34.70;;;;;;4928802;28;45421;-59
2022/04/18 15:23:58;;;;;;;2.47;0.90;;;20.20;34.40;;;;;;4929227;28;45378;-58
2022/04/18 15:26:24;;;;;;;1.67;1.10;;;20.20;34.60;;;;;;4951340;28;45255;-56
2022/04/18 15:28:50;;;;;;;1.98;1.10;;;20.20;34.60;;;;;;4952575;28;45264;-56
2022/04/18 15:34:00;;;;;;;1.20;1.02;;;20.20;34.70;;;;;;4949147;28;45301;-58
2022/04/18 15:36:25;;;;;;;1.73;1.40;;;20.20;34.70;;;;;;4931045;28;45257;-58
2022/04/18 15:38:51;;;;;;;3.17;1.50;;;20.20;34.70;;;;;;4916218;28;45212;-57
2022/04/18 15:41:17;;;;;;;1.55;1.10;;;20.30;34.60;;;;;;4913489;28;45760;-58
2022/04/18 15:43:42;;;;;;;1.33;1.10;;;20.20;34.50;;;;;;4949123;28;45502;-58
2022/04/18 15:46:09;;;;;;;3.67;1.48;;;20.20;34.60;;;;;;4947642;28;44990;-57
2022/04/18 15:48:35;;;;;;;1.48;1.15;;;20.20;34.40;;;;;;4942182;28;46914;-58
2022/04/18 15:51:01;;;;;;;1.98;1.20;;;20.20;34.80;;;;;;4932843;28;45944;-58
2022/04/18 15:53:27;;;;;;;2.15;1.58;;;20.20;34.70;;;;;;4953259;28;45027;-57
2022/04/18 15:55:53;;;;;;;2.30;1.20;;;20.20;34.60;;;;;;4950025;28;45508;-58
2022/04/18 15:58:18;;;;;;;1.73;1.40;;;20.30;34.60;;;;;;4940909;28;46199;-57
2022/04/18 16:00:44;;;;;;;1.95;1.10;;;20.30;34.50;;;;;;4951209;28;45125;-59
2022/04/18 16:03:10;;;;;;;2.45;1.17;;;20.30;35.10;;;;;;4960100;28;45274;-56
2022/04/18 16:05:36;;;;;;;1.70;1.10;;;20.20;34.50;;;;;;4962580;28;45321;-58
2022/04/18 16:08:01;;;;;;;1.38;1.20;;;20.30;34.40;;;;;;4943955;28;45820;-59
2022/04/18 16:10:28;;;;;;;3.25;1.30;;;20.20;34.30;;;;;;4949649;28;45305;-58
2022/04/18 16:12:53;;;;;;;4.32;1.13;;;20.20;34.30;;;;;;4897701;28;45106;-58
2022/04/18 16:15:19;;;;;;;1.85;1.10;;;20.20;34.50;;;;;;4935510;28;45171;-58
2022/04/18 16:17:45;;;;;;;1.50;1.17;;;20.20;34.50;;;;;;4932351;28;46121;-57
2022/04/18 16:20:10;;;;;;;1.70;1.20;;;20.20;34.40;;;;;;4950011;28;45471;-58
2022/04/18 16:22:36;;;;;;;1.35;1.15;;;20.20;34.20;;;;;;4953843;28;45216;-58